Time;durP1;ratioP1;P1;durP2;ratioP2;P2;SDS_P1;SDS_P2;PMS_P1;PMS_P2;Temp;Humidity;BMP_temperature;BMP_pressure;BME280_temperature;BME280_humidity;BME280_pressure;Samples;Min_cycle;Max_cycle;Signal;HPM_P1;HPM_P2
2023/06/03 00:00:25;;;;;;;2.57;1.33;;;16.30;42.40;;;18.97;33.14;102307.97;5055619;28;20593;-65
2023/06/03 00:02:56;;;;;;;1.33;1.23;;;16.30;42.60;;;18.93;33.33;102307.53;5052606;28;20206;-65
2023/06/03 00:05:25;;;;;;;3.00;0.90;;;16.20;42.80;;;18.88;33.37;102309.97;5054874;28;20212;-67
2023/06/03 00:07:51;;;;;;;2.40;1.20;;;16.20;43.10;;;18.84;33.71;102308.69;5049101;28;20252;-65
2023/06/03 00:10:19;;;;;;;2.43;1.20;;;16.10;43.20;;;18.81;33.53;102309.06;5035403;28;20205;-64
2023/06/03 00:12:46;;;;;;;2.63;1.43;;;16.10;43.30;;;18.78;33.81;102309.44;5047066;28;20204;-66
2023/06/03 00:15:13;;;;;;;1.57;1.30;;;16.10;43.70;;;18.76;34.02;102308.81;5054916;28;20214;-66
2023/06/03 00:17:40;;;;;;;1.77;1.17;;;16.10;43.70;;;18.75;33.90;102315.19;5055705;28;20264;-65
2023/06/03 00:20:09;;;;;;;2.20;1.00;;;16.00;43.80;;;18.73;34.07;102311.03;5055440;28;20190;-66
2023/06/03 00:22:40;;;;;;;1.53;1.23;;;16.00;44.10;;;18.73;34.13;102311.84;5054550;28;20229;-67
2023/06/03 00:25:08;;;;;;;2.27;0.87;;;16.00;44.10;;;18.73;33.98;102311.03;5054750;28;20222;-66
2023/06/03 00:27:36;;;;;;;1.20;1.03;;;16.00;44.10;;;18.71;34.41;102305.88;5054855;28;20201;-66
2023/06/03 00:30:06;;;;;;;1.93;1.30;;;16.00;44.30;;;18.69;34.33;102310.56;5053771;28;20197;-65
2023/06/03 00:32:34;;;;;;;1.10;1.00;;;16.00;44.30;;;18.68;34.61;102313.44;5054824;28;20193;-65
2023/06/03 00:35:01;;;;;;;1.03;0.90;;;16.00;44.40;;;18.64;34.34;102310.31;5053608;28;20248;-65
2023/06/03 00:37:28;;;;;;;1.43;1.10;;;16.00;44.40;;;18.62;34.43;102309.69;5054952;28;20210;-65
2023/06/03 00:39:56;;;;;;;1.43;1.10;;;16.00;44.50;;;18.58;34.66;102305.75;5054798;28;20217;-66
2023/06/03 00:42:23;;;;;;;1.80;0.93;;;15.90;44.70;;;18.53;34.66;102304.66;5054725;28;20201;-65
2023/06/03 00:44:50;;;;;;;1.23;1.10;;;15.80;44.80;;;18.49;34.74;102314.03;5053468;28;20267;-66
2023/06/03 00:47:20;;;;;;;1.77;1.07;;;15.80;44.90;;;18.43;34.91;102304.06;5034811;28;20561;-65
2023/06/03 00:49:47;;;;;;;1.20;1.10;;;15.70;45.10;;;18.40;35.16;102315.13;5035173;28;20582;-66
2023/06/03 00:52:17;;;;;;;1.80;1.20;;;15.70;45.30;;;18.37;35.22;102316.34;5034775;28;20561;-65
2023/06/03 00:54:47;;;;;;;1.47;1.00;;;15.70;45.60;;;18.32;35.23;102324.06;5033235;28;20257;-65
2023/06/03 00:57:17;;;;;;;1.23;0.90;;;15.60;45.80;;;18.29;35.34;102324.44;5054338;28;20245;-64
2023/06/03 00:59:44;;;;;;;2.10;1.30;;;15.60;45.80;;;18.26;35.57;102325.63;5044002;28;20206;-65
2023/06/03 01:02:13;;;;;;;1.30;1.20;;;15.60;46.00;;;18.24;35.49;102318.81;5045874;28;20284;-66
2023/06/03 01:04:45;;;;;;;3.10;1.23;;;15.50;45.90;;;18.21;35.68;102327.19;5045450;28;20233;-65
2023/06/03 01:07:20;;;;;;;3.53;1.30;;;15.50;46.10;;;18.17;35.88;102323.25;5054117;28;20197;-65
2023/06/03 01:10:05;;;;;;;1.87;1.30;;;15.50;46.40;;;18.13;35.95;102324.63;5054043;28;20717;-64
2023/06/03 01:12:48;;;;;;;3.33;1.40;;;15.50;46.60;;;18.14;35.83;102320.94;5054208;28;20256;-65
2023/06/03 01:15:23;;;;;;;1.70;1.30;;;15.50;46.60;;;18.12;35.93;102318.47;5041836;28;20222;-66
2023/06/03 01:17:52;;;;;;;1.20;1.03;;;15.40;46.70;;;18.10;36.21;102325.84;5034045;28;20268;-65
2023/06/03 01:20:26;;;;;;;1.23;1.00;;;15.40;46.80;;;18.08;36.00;102327.84;5035309;28;20195;-66
2023/06/03 01:23:03;;;;;;;2.60;1.40;;;15.40;46.90;;;18.08;36.21;102332.34;5033643;28;20654;-65
2023/06/03 01:25:31;;;;;;;2.70;1.33;;;15.40;46.90;;;18.05;36.23;102324.72;5040289;28;20659;-65
2023/06/03 01:27:58;;;;;;;1.87;1.43;;;15.40;47.20;;;18.04;36.43;102328.41;5053740;28;20197;-64
2023/06/03 01:30:26;;;;;;;1.80;1.17;;;15.40;47.40;;;18.01;36.56;102326.13;5053606;28;20251;-65
2023/06/03 01:32:53;;;;;;;1.73;1.27;;;15.30;47.30;;;18.00;36.63;102332.44;5053199;28;20193;-65
2023/06/03 01:35:21;;;;;;;1.17;1.07;;;15.30;47.40;;;17.96;36.29;102326.66;5052375;28;20207;-65
2023/06/03 01:37:49;;;;;;;1.43;1.30;;;15.30;47.50;;;17.91;36.53;102331.72;5053731;28;20296;-66
2023/06/03 01:40:18;;;;;;;3.00;1.23;;;15.20;47.60;;;17.86;36.77;102331.44;5053790;28;20185;-67
2023/06/03 01:42:46;;;;;;;3.07;1.00;;;15.20;47.90;;;17.82;37.03;102338.16;5053721;28;20240;-66
2023/06/03 01:45:14;;;;;;;1.50;1.03;;;15.10;48.00;;;17.77;37.23;102332.53;5053807;28;20624;-66
2023/06/03 01:47:41;;;;;;;1.80;1.10;;;15.00;48.20;;;17.73;36.99;102330.41;5053803;28;20272;-65
2023/06/03 01:50:09;;;;;;;1.20;1.10;;;15.00;48.30;;;17.69;37.25;102327.28;5053602;28;20224;-65
2023/06/03 01:52:36;;;;;;;2.67;1.10;;;15.00;48.70;;;17.66;37.36;102337.47;5049548;28;20187;-67
2023/06/03 01:55:04;;;;;;;1.20;1.10;;;14.90;48.70;;;17.61;37.49;102335.38;5033014;28;20249;-66
2023/06/03 01:57:31;;;;;;;2.27;1.30;;;14.90;49.00;;;17.55;37.61;102331.56;5033725;28;20226;-65
2023/06/03 02:00:00;;;;;;;1.37;1.20;;;14.80;49.10;;;17.51;37.72;102338.28;5035122;28;20214;-65
2023/06/03 02:02:28;;;;;;;4.50;1.60;;;14.80;49.50;;;17.47;37.83;102334.28;5053320;28;20693;-65
2023/06/03 02:04:56;;;;;;;1.77;1.17;;;14.70;49.50;;;17.43;37.94;102340.97;5052845;28;20209;-65
2023/06/03 02:07:25;;;;;;;2.47;1.27;;;14.70;49.70;;;17.40;38.19;102341.31;5053008;28;20533;-65
2023/06/03 02:09:53;;;;;;;1.30;1.20;;;14.70;49.90;;;17.37;38.29;102349.69;5052766;28;20240;-67
2023/06/03 02:12:20;;;;;;;2.60;1.50;;;14.60;50.00;;;17.34;38.06;102344.72;5039755;28;20199;-66
2023/06/03 02:14:47;;;;;;;1.30;1.20;;;14.60;50.70;;;17.29;38.26;102347.09;5041081;28;20759;-66
2023/06/03 02:17:15;;;;;;;1.47;1.30;;;14.50;50.20;;;17.24;38.35;102337.97;5053324;28;20235;-65
2023/06/03 02:19:42;;;;;;;1.50;1.33;;;14.50;50.30;;;17.23;38.69;102342.50;5053284;28;20611;-64
2023/06/03 02:22:10;;;;;;;5.37;1.63;;;14.50;50.70;;;17.18;38.85;102342.19;5053071;28;20225;-64
2023/06/03 02:24:38;;;;;;;1.20;1.10;;;14.50;50.80;;;17.16;38.95;102341.56;5052836;28;20247;-66
2023/06/03 02:27:06;;;;;;;1.17;1.07;;;14.40;50.80;;;17.13;38.83;102341.91;5051453;28;20658;-64
2023/06/03 02:29:33;;;;;;;2.50;1.43;;;14.40;51.10;;;17.11;38.97;102341.25;5053291;28;20629;-65
2023/06/03 02:32:01;;;;;;;5.50;1.30;;;14.40;51.00;;;17.09;39.20;102340.56;5056774;28;20352;-65
2023/06/03 02:34:29;;;;;;;4.17;1.30;;;14.30;51.10;;;17.07;38.96;102347.91;5056828;28;20209;-65
2023/06/03 02:36:56;;;;;;;2.20;1.43;;;14.30;51.30;;;17.02;39.12;102344.94;5057186;28;20290;-65
2023/06/03 02:39:23;;;;;;;1.83;1.23;;;14.30;51.50;;;17.00;39.13;102341.66;5057325;28;20185;-65
2023/06/03 02:41:51;;;;;;;1.60;1.40;;;14.30;51.60;;;17.00;39.60;102336.31;5056296;28;20229;-65
2023/06/03 02:44:18;;;;;;;1.47;1.27;;;14.30;51.90;;;16.98;39.60;102343.66;5037613;28;20293;-65
2023/06/03 02:46:45;;;;;;;2.57;1.23;;;14.30;52.00;;;16.98;39.68;102341.00;5037587;28;20236;-65
2023/06/03 02:49:14;;;;;;;1.43;1.33;;;14.20;51.90;;;17.00;39.53;102357.59;5037782;28;20199;-66
2023/06/03 02:51:42;;;;;;;1.57;1.40;;;14.30;52.20;;;17.01;39.45;102338.00;5043194;28;20244;-67
2023/06/03 02:54:10;;;;;;;2.63;1.30;;;14.30;52.30;;;17.02;39.36;102349.47;5056751;28;20646;-66
2023/06/03 02:56:37;;;;;;;2.50;1.30;;;14.30;52.00;;;17.00;39.59;102346.97;5056538;28;20283;-66
2023/06/03 02:59:05;;;;;;;1.63;1.20;;;14.30;52.10;;;16.99;39.52;102349.81;5055308;28;20190;-65
2023/06/03 03:01:32;;;;;;;1.40;1.20;;;14.30;52.30;;;16.97;39.75;102352.66;5045555;28;20221;-65
2023/06/03 03:03:59;;;;;;;1.37;1.23;;;14.20;52.10;;;16.95;39.39;102349.31;5056116;28;20312;-65
2023/06/03 03:06:27;;;;;;;2.60;1.20;;;14.20;52.30;;;16.96;39.42;102352.81;5056447;28;20227;-65
2023/06/03 03:08:55;;;;;;;1.23;1.00;;;14.20;52.30;;;16.92;39.81;102355.81;5055259;28;20285;-65
2023/06/03 03:11:24;;;;;;;2.00;1.33;;;14.20;52.50;;;16.92;39.93;102345.19;5056689;28;20549;-65
2023/06/03 03:13:51;;;;;;;1.33;1.20;;;14.20;52.50;;;16.91;39.57;102353.34;5055349;28;20228;-65
2023/06/03 03:16:18;;;;;;;1.80;1.10;;;14.20;52.40;;;16.88;39.88;102351.03;5056341;28;20291;-66
2023/06/03 03:18:45;;;;;;;1.17;1.13;;;14.20;52.60;;;16.86;39.88;102355.69;5056185;28;20651;-65
2023/06/03 03:21:13;;;;;;;1.70;1.60;;;14.20;52.70;;;16.85;39.88;102354.06;5056618;28;20225;-65
2023/06/03 03:23:40;;;;;;;2.80;1.23;;;14.20;53.20;;;16.84;40.21;102355.06;5056118;28;20280;-65
2023/06/03 03:26:08;;;;;;;2.13;1.40;;;14.10;53.00;;;16.82;40.07;102354.41;5056278;28;20214;-65
2023/06/03 03:28:36;;;;;;;3.23;1.30;;;14.10;53.10;;;16.81;40.19;102358.06;5048201;28;20245;-65
2023/06/03 03:31:09;;;;;;;3.77;1.33;;;14.10;53.20;;;16.79;40.22;102354.75;5036019;28;20198;-65
2023/06/03 03:33:36;;;;;;;1.73;1.30;;;14.00;53.10;;;16.74;40.06;102352.63;5035966;28;20307;-64
2023/06/03 03:36:18;;;;;;;2.07;1.30;;;14.00;53.30;;;16.74;40.27;102357.09;5036073;28;20638;-66
2023/06/03 03:38:45;;;;;;;2.67;1.30;;;14.00;53.50;;;16.77;40.28;102356.75;5035591;28;20603;-66
2023/06/03 03:41:13;;;;;;;1.00;1.00;;;14.10;53.90;;;16.83;40.35;102361.38;5046079;28;20202;-66
2023/06/03 03:43:40;;;;;;;2.13;1.50;;;14.10;53.70;;;16.89;40.17;102363.34;5050375;28;20198;-64
2023/06/03 03:46:09;;;;;;;2.17;1.30;;;14.10;53.80;;;16.96;40.18;102358.97;5036128;28;20297;-65
2023/06/03 03:48:36;;;;;;;1.70;1.30;;;14.10;53.60;;;17.02;40.14;102360.91;5036193;28;20218;-65
2023/06/03 03:51:05;;;;;;;3.17;1.57;;;14.20;53.60;;;17.05;39.89;102365.88;5036179;28;20198;-65
2023/06/03 03:53:35;;;;;;;2.50;1.70;;;14.20;53.40;;;17.08;39.88;102362.88;5046303;28;20202;-64
2023/06/03 03:56:04;;;;;;;2.10;1.50;;;14.30;53.30;;;17.12;39.99;102363.34;5055481;28;20297;-66
2023/06/03 03:58:40;;;;;;;1.33;1.20;;;14.30;53.30;;;17.11;39.97;102365.19;5037415;28;20245;-66
2023/06/03 04:01:12;;;;;;;2.13;1.40;;;14.40;53.40;;;17.14;39.81;102364.03;5040604;28;20200;-66
2023/06/03 04:03:42;;;;;;;2.93;1.43;;;14.40;53.20;;;17.14;39.92;102369.34;5054354;28;20232;-65
2023/06/03 04:06:12;;;;;;;1.17;1.07;;;14.40;53.20;;;17.12;39.78;102366.84;5055107;28;20694;-64
2023/06/03 04:08:48;;;;;;;2.50;1.57;;;14.40;53.10;;;17.10;39.62;102368.84;5055225;28;20185;-64
2023/06/03 04:11:23;;;;;;;3.03;1.40;;;14.40;52.90;;;17.07;40.03;102369.19;5054688;28;20217;-66
2023/06/03 04:13:52;;;;;;;2.10;1.13;;;14.40;53.30;;;17.08;40.25;102370.88;5055328;28;20335;-64
2023/06/03 04:16:51;;;;;;;5.63;2.00;;;14.30;53.50;;;17.08;39.99;102364.72;5055213;28;20218;-65
2023/06/03 04:19:27;;;;;;;4.20;1.37;;;14.40;53.50;;;17.12;39.61;102364.19;5051342;28;20237;-64
2023/06/03 04:21:55;;;;;;;2.97;1.40;;;14.30;53.50;;;17.13;39.90;102368.50;5055528;28;20265;-65
2023/06/03 04:24:22;;;;;;;1.37;1.27;;;14.30;53.70;;;17.12;40.14;102369.50;5054928;28;20757;-66
2023/06/03 04:26:49;;;;;;;1.57;1.23;;;14.40;53.80;;;17.13;40.13;102373.81;5040231;28;20218;-66
2023/06/03 04:29:18;;;;;;;2.00;1.40;;;14.40;54.00;;;17.17;40.21;102374.28;5035234;28;20273;-66
2023/06/03 04:31:45;;;;;;;2.30;1.23;;;14.40;53.80;;;17.18;40.12;102370.63;5034953;28;20277;-65
2023/06/03 04:34:12;;;;;;;2.07;1.20;;;14.40;53.60;;;17.18;40.27;102371.47;5034536;28;20190;-64
2023/06/03 04:36:39;;;;;;;1.80;1.40;;;14.40;53.70;;;17.16;40.30;102365.50;5035186;28;20203;-65
2023/06/03 04:39:08;;;;;;;1.30;1.20;;;14.40;53.80;;;17.17;40.27;102372.47;5034302;28;20218;-64
2023/06/03 04:41:37;;;;;;;2.10;1.40;;;14.40;53.90;;;17.19;40.21;102370.44;5048259;28;20201;-65
2023/06/03 04:44:04;;;;;;;3.33;1.40;;;14.40;53.90;;;17.22;40.01;102372.75;5054759;28;20196;-64
2023/06/03 04:46:34;;;;;;;2.17;1.63;;;14.40;53.90;;;17.23;40.08;102373.59;5054815;28;20189;-64
2023/06/03 04:49:03;;;;;;;1.77;1.03;;;14.50;54.10;;;17.23;40.33;102371.78;5050820;28;20674;-64
2023/06/03 04:51:33;;;;;;;1.50;1.40;;;14.50;54.00;;;17.24;40.25;102373.41;5034595;28;20237;-63
2023/06/03 04:54:01;;;;;;;3.17;1.43;;;14.50;53.90;;;17.25;40.26;102376.91;5033582;28;20244;-64
2023/06/03 04:56:29;;;;;;;2.20;1.40;;;14.50;54.10;;;17.29;40.39;102378.19;5048734;28;20194;-64
2023/06/03 04:58:57;;;;;;;1.23;1.13;;;14.50;54.20;;;17.34;40.08;102376.66;5053454;28;20190;-64
2023/06/03 05:01:25;;;;;;;1.13;1.10;;;14.50;54.10;;;17.40;40.02;102375.94;5054264;28;20280;-64
2023/06/03 05:03:54;;;;;;;1.50;1.40;;;14.60;54.10;;;17.47;39.73;102376.88;5054364;28;20568;-65
2023/06/03 05:06:23;;;;;;;2.73;1.47;;;14.60;53.80;;;17.54;39.55;102377.03;5054635;28;20197;-64
2023/06/03 05:08:51;;;;;;;1.33;1.07;;;14.70;53.80;;;17.61;39.68;102369.97;5053556;28;20277;-64
2023/06/03 05:11:18;;;;;;;1.87;1.33;;;14.80;53.70;;;17.66;39.64;102364.94;5054582;28;20573;-69
2023/06/03 05:13:45;;;;;;;1.20;1.20;;;14.80;53.50;;;17.72;39.55;102368.69;5053945;28;20562;-63
2023/06/03 05:16:13;;;;;;;1.20;1.10;;;14.90;53.50;;;17.75;39.27;102368.34;5034220;28;20234;-65
2023/06/03 05:18:40;;;;;;;2.13;1.27;;;14.90;53.30;;;17.79;39.43;102374.97;5034115;28;20214;-64
2023/06/03 05:21:08;;;;;;;1.83;1.13;;;15.00;53.30;;;17.84;39.28;102372.59;5034036;28;20199;-65
2023/06/03 05:23:35;;;;;;;1.93;1.30;;;15.00;53.20;;;17.89;39.00;102371.03;5046669;28;20246;-65
2023/06/03 05:26:02;;;;;;;1.27;1.03;;;15.10;53.00;;;17.94;39.10;102366.00;5053966;28;20217;-65
2023/06/03 05:28:30;;;;;;;0.97;0.87;;;15.10;53.00;;;18.01;39.23;102371.41;5054530;28;20577;-65
2023/06/03 05:30:57;;;;;;;1.73;1.00;;;15.10;52.90;;;18.07;38.89;102371.50;5054128;28;20244;-64
2023/06/03 05:33:26;;;;;;;1.57;1.30;;;15.20;52.80;;;18.15;38.74;102375.91;5043886;28;20273;-66
2023/06/03 05:35:53;;;;;;;3.83;1.50;;;15.30;52.70;;;18.23;38.75;102370.50;5034374;28;20272;-65
2023/06/03 05:38:22;;;;;;;1.70;1.40;;;15.30;52.50;;;18.32;38.70;102373.88;5050179;28;20304;-64
2023/06/03 05:40:51;;;;;;;1.43;1.30;;;15.40;52.40;;;18.40;38.31;102369.28;5053760;28;20601;-65
2023/06/03 05:43:18;;;;;;;1.30;1.20;;;15.50;52.10;;;18.49;38.03;102373.56;5053511;28;20194;-64
2023/06/03 05:45:46;;;;;;;3.23;1.20;;;15.60;52.10;;;18.58;37.93;102372.44;5045590;28;20229;-65
2023/06/03 05:48:13;;;;;;;1.73;1.00;;;15.70;51.80;;;18.64;37.56;102377.00;5034258;28;20192;-63
2023/06/03 05:50:49;;;;;;;3.70;1.20;;;15.70;51.40;;;18.69;37.29;102379.94;5034412;28;20241;-64
2023/06/03 05:53:20;;;;;;;2.67;1.20;;;15.80;51.00;;;18.73;37.18;102375.88;5038774;28;20696;-64
2023/06/03 05:55:49;;;;;;;2.07;1.13;;;15.80;50.60;;;18.78;36.87;102377.97;5054185;28;20210;-64
2023/06/03 05:58:16;;;;;;;1.93;1.20;;;15.90;50.40;;;18.80;36.58;102374.09;5053824;28;20300;-64
2023/06/03 06:00:43;;;;;;;3.30;1.17;;;15.90;49.90;;;18.86;36.51;102375.19;5055326;28;20311;-65
2023/06/03 06:03:12;;;;;;;2.37;1.40;;;16.00;49.70;;;18.91;36.30;102373.63;5056584;28;20189;-65
2023/06/03 06:05:40;;;;;;;1.43;1.10;;;16.00;49.50;;;19.00;36.25;102373.50;5051360;28;20214;-65
2023/06/03 06:08:08;;;;;;;1.93;1.00;;;16.10;49.60;;;19.07;36.07;102374.38;5043907;28;20277;-65
2023/06/03 06:10:35;;;;;;;1.87;1.10;;;16.10;49.40;;;19.13;36.04;102376.31;5055060;28;20205;-66
2023/06/03 06:13:03;;;;;;;3.03;1.53;;;16.20;49.10;;;19.22;35.68;102369.81;5057185;28;20190;-65
2023/06/03 06:15:30;;;;;;;1.77;1.10;;;16.20;48.60;;;19.27;35.34;102372.75;5044938;28;20210;-65
2023/06/03 06:17:57;;;;;;;3.53;1.30;;;16.30;48.70;;;19.27;34.84;102368.25;5036944;28;20225;-65
2023/06/03 06:20:25;;;;;;;1.93;1.20;;;16.30;47.50;;;19.29;35.29;102376.88;5044254;28;20263;-66
2023/06/03 06:22:53;;;;;;;2.20;1.13;;;16.40;47.90;;;19.35;34.89;102376.09;5058184;28;20190;-66
2023/06/03 06:25:21;;;;;;;2.17;1.07;;;16.40;47.50;;;19.37;34.54;102373.28;5059240;28;20269;-66
2023/06/03 06:27:48;;;;;;;1.43;1.33;;;16.50;47.30;;;19.43;34.68;102377.84;5057740;28;20220;-66
2023/06/03 06:30:17;;;;;;;1.60;1.50;;;16.50;47.30;;;19.49;34.42;102377.09;5055276;28;20221;-65
2023/06/03 06:32:49;;;;;;;5.33;3.27;;;16.50;46.90;;;19.56;34.11;102373.44;5053202;28;20194;-65
2023/06/03 06:35:18;;;;;;;2.43;2.17;;;16.60;46.90;;;19.68;34.04;102370.25;5040895;28;20619;-65
2023/06/03 06:37:46;;;;;;;1.43;1.33;;;16.60;46.80;;;19.77;34.00;102369.91;5032929;28;20626;-65
2023/06/03 06:40:19;;;;;;;1.80;1.70;;;16.70;46.50;;;19.82;32.44;102366.66;5036506;28;20194;-66
2023/06/03 06:42:47;;;;;;;4.07;3.40;;;16.80;44.00;;;19.85;33.21;102368.94;5038249;28;20203;-65
2023/06/03 06:45:27;;;;;;;1.50;1.20;;;16.90;45.00;;;19.88;32.97;102366.69;5033310;28;20290;-65
2023/06/03 06:48:04;;;;;;;1.47;1.20;;;16.90;44.50;;;19.92;33.01;102365.28;5032698;28;20179;-67
2023/06/03 06:50:45;;;;;;;2.30;1.07;;;17.00;44.70;;;20.02;32.82;102373.78;5033254;28;20638;-66
2023/06/03 06:53:14;;;;;;;3.03;1.10;;;17.10;44.30;;;20.13;32.12;102372.41;5032761;28;20274;-66
2023/06/03 06:55:49;;;;;;;2.27;1.23;;;17.10;43.90;;;20.22;32.38;102369.41;5040595;28;20713;-66
2023/06/03 06:58:20;;;;;;;1.10;1.00;;;17.20;44.30;;;20.34;32.13;102360.81;5052599;28;20730;-66
2023/06/03 07:00:49;;;;;;;3.77;0.90;;;17.30;44.10;;;20.42;32.03;102363.34;5052855;28;20222;-66
2023/06/03 07:03:18;;;;;;;1.27;0.80;;;17.40;44.10;;;20.52;31.53;102363.78;5051204;28;20268;-67
2023/06/03 07:05:52;;;;;;;3.13;0.90;;;17.50;43.10;;;20.51;31.67;102364.81;5052467;28;20268;-67
2023/06/03 07:08:20;;;;;;;1.73;1.30;;;17.50;42.30;;;20.53;31.84;102370.78;5052189;28;20253;-66
2023/06/03 07:10:47;;;;;;;2.83;1.17;;;17.60;42.80;;;20.61;32.15;102363.41;5053184;28;20233;-67
2023/06/03 07:13:15;;;;;;;1.67;1.03;;;17.70;43.20;;;20.71;32.00;102363.03;5052547;28;20276;-67
2023/06/03 07:15:43;;;;;;;1.50;1.03;;;17.70;43.20;;;20.83;31.81;102361.41;5036526;28;20284;-66
2023/06/03 07:18:12;;;;;;;1.53;1.10;;;17.80;43.30;;;20.95;31.42;102362.47;5046570;28;20789;-66
2023/06/03 07:20:41;;;;;;;1.67;1.20;;;17.90;42.80;;;21.02;31.58;102366.00;5056944;28;20198;-66
2023/06/03 07:23:11;;;;;;;1.93;1.40;;;18.00;42.90;;;21.14;31.26;102369.75;5054840;28;20200;-66
2023/06/03 07:25:41;;;;;;;1.10;1.00;;;18.10;43.00;;;21.19;30.64;102367.28;5048438;28;20218;-67
2023/06/03 07:28:10;;;;;;;1.40;0.90;;;18.20;41.20;;;21.20;30.21;102368.13;5035827;28;20182;-67
2023/06/03 07:30:39;;;;;;;2.27;1.40;;;18.30;41.00;;;21.27;30.70;102361.75;5036483;28;20269;-67
2023/06/03 07:33:09;;;;;;;2.07;1.20;;;18.40;41.10;;;21.33;30.29;102368.94;5035349;28;20281;-67
2023/06/03 07:35:38;;;;;;;1.07;1.00;;;18.40;40.50;;;21.40;30.11;102367.09;5036054;28;20298;-67
2023/06/03 07:38:05;;;;;;;5.37;3.27;;;18.50;40.20;;;21.51;30.12;102371.81;5042300;28;20308;-65
2023/06/03 07:40:43;;;;;;;1.37;1.20;;;18.60;40.70;;;21.62;29.71;102374.94;5056024;28;20706;-66
2023/06/03 07:43:11;;;;;;;1.93;1.20;;;18.70;40.20;;;21.70;29.33;102374.72;5055168;28;20221;-67
2023/06/03 07:45:39;;;;;;;1.90;0.90;;;18.70;39.50;;;21.79;29.73;102368.13;5055856;28;20252;-67
2023/06/03 07:48:12;;;;;;;1.53;0.90;;;18.80;39.90;;;21.88;28.92;102374.94;5036137;28;20554;-65
2023/06/03 07:50:41;;;;;;;1.93;1.00;;;18.90;39.40;;;21.99;28.77;102368.91;5035897;28;20266;-66
2023/06/03 07:53:08;;;;;;;0.90;0.90;;;19.00;39.20;;;21.99;27.96;102368.91;5035268;28;20198;-66
2023/06/03 07:55:44;;;;;;;1.07;0.97;;;19.10;37.70;;;21.90;28.48;102372.84;5042755;28;20317;-66
2023/06/03 07:58:12;;;;;;;1.20;1.10;;;19.10;37.60;;;21.92;28.31;102370.78;5055723;28;20615;-67
2023/06/03 08:00:43;;;;;;;1.77;1.00;;;19.20;36.90;;;21.87;27.80;102366.06;5052409;28;20289;-66
2023/06/03 08:03:15;;;;;;;0.80;0.80;;;19.20;36.10;;;21.90;27.71;102375.53;5055385;28;20591;-66
2023/06/03 08:05:43;;;;;;;1.17;0.90;;;19.20;36.00;;;22.01;28.01;102372.25;5054349;28;20319;-67
2023/06/03 08:08:12;;;;;;;4.77;0.93;;;19.20;36.60;;;22.17;28.18;102364.56;5055161;28;20621;-66
2023/06/03 08:10:40;;;;;;;1.73;1.07;;;19.30;37.40;;;22.61;27.49;102363.78;5055419;28;20220;-67
2023/06/03 08:13:07;;;;;;;1.33;1.10;;;19.40;36.70;;;23.71;26.82;102374.00;5055397;28;20189;-66
2023/06/03 08:15:37;;;;;;;2.70;0.73;;;19.60;37.10;;;25.04;24.58;102367.69;5048686;28;20686;-65
2023/06/03 08:18:06;;;;;;;0.80;0.80;;;20.20;35.70;;;26.57;22.93;102368.25;5054972;28;20233;-65
2023/06/03 08:20:35;;;;;;;1.13;1.03;;;20.80;34.50;;;28.17;22.35;102364.72;5055493;28;20197;-66
2023/06/03 08:23:04;;;;;;;4.13;1.10;;;21.60;35.80;;;29.78;21.00;102362.81;5037716;28;20312;-66
2023/06/03 08:25:31;;;;;;;2.33;1.00;;;22.50;35.40;;;31.15;19.68;102355.91;5041359;28;20209;-66
2023/06/03 08:27:58;;;;;;;1.80;1.03;;;23.50;33.40;;;32.29;17.78;102357.88;5054030;28;20194;-66
2023/06/03 08:30:25;;;;;;;2.13;1.93;;;24.40;31.10;;;33.04;17.46;102362.09;5041808;28;20786;-66
2023/06/03 08:32:52;;;;;;;0.83;0.80;;;25.30;29.90;;;33.82;16.76;102354.53;5034564;28;20277;-66
2023/06/03 08:35:21;;;;;;;1.03;0.93;;;26.10;29.10;;;34.35;15.20;102358.78;5048647;28;20732;-66
2023/06/03 08:37:48;;;;;;;11.40;7.43;;;26.90;25.40;;;34.64;15.47;102351.28;5054898;28;20204;-67
2023/06/03 08:40:17;;;;;;;2.30;2.07;;;27.50;26.00;;;35.32;15.22;102362.53;5054993;28;20221;-66
2023/06/03 08:42:47;;;;;;;2.03;1.73;;;28.10;25.30;;;36.04;14.12;102362.81;5054549;28;20198;-66
2023/06/03 08:45:16;;;;;;;1.97;1.30;;;28.60;25.70;;;36.82;13.97;102353.41;5053566;28;20301;-65
2023/06/03 08:48:06;;;;;;;1.93;1.70;;;29.10;24.20;;;37.26;13.47;102353.41;5054538;28;20259;-65
2023/06/03 08:50:35;;;;;;;3.83;1.40;;;29.70;22.80;;;37.37;12.75;102356.69;5054284;28;20198;-67
2023/06/03 08:53:08;;;;;;;4.37;0.90;;;30.00;22.00;;;37.44;13.03;102362.59;5052865;28;20214;-67
2023/06/03 08:55:38;;;;;;;1.70;1.05;;;30.30;22.00;;;37.71;13.16;102357.69;5053239;28;20217;-66
2023/06/03 08:58:12;;;;;;;1.35;1.25;;;30.60;22.00;;;38.45;12.83;102355.78;5053851;28;20203;-65
2023/06/03 09:00:40;;;;;;;1.95;1.77;;;30.90;21.90;;;38.96;12.26;102351.41;5054157;28;20252;-64
2023/06/03 09:03:11;;;;;;;2.50;1.85;;;31.20;21.40;;;39.41;11.72;102354.56;5041856;28;20532;-67
2023/06/03 09:05:40;;;;;;;1.42;1.33;;;31.50;20.80;;;39.25;11.61;102357.84;5053601;28;20681;-65
2023/06/03 09:08:11;;;;;;;1.42;1.20;;;31.60;19.70;;;38.65;11.78;102359.03;5053665;28;20218;-66
2023/06/03 09:10:39;;;;;;;1.95;1.75;;;31.80;19.70;;;38.51;12.20;102364.72;5046657;28;20210;-66
2023/06/03 09:13:08;;;;;;;6.28;1.80;;;31.90;20.20;;;38.96;11.90;102343.16;5040311;28;20571;-65
2023/06/03 09:15:37;;;;;;;1.60;1.50;;;32.00;20.30;;;39.59;11.51;102351.44;5040788;28;20215;-66
2023/06/03 09:18:04;;;;;;;2.35;1.40;;;32.00;19.70;;;39.84;11.33;102352.44;5033847;28;20221;-68
2023/06/03 09:20:31;;;;;;;3.67;2.92;;;32.10;19.50;;;40.24;11.25;102341.81;5033316;28;20198;-66
2023/06/03 09:22:59;;;;;;;1.35;1.02;;;32.30;20.20;;;40.80;11.47;102343.94;5033616;28;20275;-66
2023/06/03 09:25:26;;;;;;;2.95;1.77;;;32.60;20.00;;;41.53;10.62;102342.16;5039373;28;20295;-65
2023/06/03 09:27:55;;;;;;;1.25;1.25;;;32.80;20.30;;;41.90;10.08;102344.94;5053559;28;20196;-66
2023/06/03 09:30:22;;;;;;;1.50;1.40;;;33.00;18.90;;;42.19;9.99;102339.97;5046339;28;20659;-67
2023/06/03 09:32:49;;;;;;;1.25;1.23;;;33.30;19.30;;;42.64;10.33;102341.69;5053103;28;20185;-65
2023/06/03 09:35:19;;;;;;;4.18;1.27;;;33.60;19.60;;;42.95;9.71;102344.56;5053307;28;20213;-65
2023/06/03 09:37:59;;;;;;;1.88;1.25;;;33.90;18.60;;;43.18;9.66;102344.75;5053685;28;20196;-66
2023/06/03 09:40:29;;;;;;;1.60;1.50;;;34.20;18.40;;;43.37;9.66;102336.53;5053496;28;20201;-65
2023/06/03 09:42:58;;;;;;;3.28;1.35;;;34.40;18.30;;;43.34;9.38;102343.63;5053280;28;20655;-65
2023/06/03 09:45:29;;;;;;;2.40;1.67;;;34.60;17.40;;;43.07;9.29;102344.50;5053372;28;20224;-64
2023/06/03 09:47:58;;;;;;;1.48;1.38;;;34.60;17.30;;;42.54;9.34;102350.50;5037651;28;20256;-65
2023/06/03 09:50:28;;;;;;;1.42;1.15;;;34.60;17.40;;;41.90;9.77;102340.22;5033425;28;20214;-66
2023/06/03 09:52:55;;;;;;;1.92;1.42;;;34.40;17.10;;;41.19;10.22;102340.63;5032984;28;20194;-64
2023/06/03 09:55:29;;;;;;;2.20;2.05;;;34.00;16.80;;;40.32;10.71;102335.44;5038701;28;20296;-65
2023/06/03 09:58:03;;;;;;;3.03;2.78;;;33.80;17.50;;;39.60;10.38;102336.50;5053421;28;20197;-66
2023/06/03 10:00:32;;;;;;;7.35;4.63;;;33.30;17.30;;;39.21;11.24;102334.03;5052893;28;20187;-64
2023/06/03 10:03:08;;;;;;;2.88;1.90;;;33.10;17.90;;;39.52;10.93;102333.72;5052118;28;20281;-67
2023/06/03 10:05:36;;;;;;;4.20;2.63;;;33.00;18.10;;;39.92;10.95;102333.06;5046308;28;20659;-66
2023/06/03 10:08:04;;;;;;;2.60;1.80;;;33.00;18.10;;;40.07;10.91;102333.66;5035745;28;20207;-66
2023/06/03 10:10:33;;;;;;;3.33;1.60;;;33.10;17.90;;;40.22;10.94;102330.31;5039332;28;20197;-65
2023/06/03 10:13:21;;;;;;;1.45;1.33;;;33.10;18.10;;;40.74;10.12;102325.16;5052910;28;20190;-65
2023/06/03 10:15:52;;;;;;;1.30;1.20;;;33.20;18.10;;;41.31;10.59;102325.22;5035284;28;20214;-67
2023/06/03 10:18:35;;;;;;;1.70;1.50;;;33.40;18.60;;;41.92;9.74;102326.84;5033183;28;20170;-67
2023/06/03 10:21:07;;;;;;;1.98;1.30;;;33.50;18.00;;;41.92;9.57;102326.84;5033052;28;20190;-66